Flight Track Log - Related Links

Times and Time Zones

All times are in EDT time to prevent confusion due to time zone crossing. See the USC105 flight status page for this flight to view local times or setup timezone preferences in your user account.

Time Position Orientation Groundspeed Altitude Reporting Facility
EDT Latitude Longitude Course Direction KTS MPH feet Rate Location/Type
Thu 12:10:11 AM 42.2400 -83.5731 268° West 123 142 1,700  Level Cleveland Center
Thu 12:11:12 AM 42.2344 -83.6206 261° West 123 142 2,800 1,033 Climbing Cleveland Center
Thu 12:12:13 AM 42.2333 -83.6681 268° West 128 147 3,800 992 Climbing Cleveland Center
Thu 12:13:13 AM 42.2300 -83.7156 265° West 127 146 4,800 1,041 Climbing Cleveland Center
Thu 12:14:14 AM 42.2264 -83.7631 264° West 128 147 5,900 595 Climbing Cleveland Center
Thu 12:15:14 AM 42.2250 -83.8192 268° West 171 197 6,000 50 Climbing Cleveland Center
Thu 12:16:15 AM 42.2231 -83.8836 268° West 170 196 6,000 38 Level Cleveland Center
Thu 12:17:50 AM 42.2200 -83.9811 268° West 174 200 6,100 38 Climbing Chicago Center
Thu 12:18:51 AM 42.2147 -84.0492 264° West 179 206 6,100 -50 Level Chicago Center
Thu 12:19:51 AM 42.2100 -84.1197 265° West 183 211 6,000 -50 Descending Chicago Center
Thu 12:20:52 AM 42.2053 -84.1869 265° West 181 208 6,000  Level Chicago Center
Thu 12:21:53 AM 42.2025 -84.2564 267° West 184 212 6,000  Level Chicago Center
Thu 12:22:53 AM 42.1986 -84.3247 266° West 184 212 6,000 50 Level Chicago Center
Thu 12:23:54 AM 42.1944 -84.3917 265° West 181 208 6,100  Climbing Chicago Center
Thu 12:24:54 AM 42.1911 -84.4603 266° West 183 211 6,000  Descending Chicago Center
Thu 12:25:55 AM 42.1869 -84.5386 266° West 182 209 6,100 49 Climbing Chicago Center
Thu 12:26:56 AM 42.1825 -84.6075 265° West 184 212 6,100 -50 Level Chicago Center
Thu 12:27:56 AM 42.1783 -84.6750 265° West 183 211 6,000  Descending Chicago Center
Thu 12:28:57 AM 42.1742 -84.7417 265° West 181 208 6,100 50 Climbing Chicago Center
Thu 12:29:57 AM 42.1703 -84.8089 266° West 181 208 6,100  Level Chicago Center
Thu 12:30:58 AM 42.1656 -84.8753 265° West 179 206 6,100 -49 Level Chicago Center
Thu 12:31:59 AM 42.1622 -84.9431 266° West 181 208 6,000 -50 Descending Chicago Center
Thu 12:32:59 AM 42.1581 -85.0103 265° West 182 209 6,000  Level Chicago Center
Thu 12:34:00 AM 42.1542 -85.0769 266° West 181 208 6,000 50 Level Chicago Center
Thu 12:35:00 AM 42.1489 -85.1433 264° West 180 207 6,100  Climbing Chicago Center
Thu 12:36:01 AM 42.1453 -85.2097 266° West 179 206 6,000 -49 Descending Chicago Center
Thu 12:37:02 AM 42.1406 -85.2744 264° West 177 204 6,000  Level Chicago Center
Thu 12:38:02 AM 42.1361 -85.3406 265° West 177 204 6,000  Level Chicago Center
Thu 12:39:03 AM 42.1325 -85.4064 266° West 178 205 6,000 50 Level Chicago Center
Thu 12:40:03 AM 42.1261 -85.4847 264° West 177 204 6,100  Climbing Chicago Center
Thu 12:41:04 AM 42.1219 -85.5517 265° West 179 206 6,000  Descending Chicago Center
Thu 12:42:04 AM 42.1183 -85.6175 266° West 178 205 6,100 50 Climbing Chicago Center
Thu 12:43:05 AM 42.1131 -85.6833 264° West 178 205 6,100  Level Chicago Center
Thu 12:44:05 AM 42.1086 -85.7492 265° West 177 204 6,100 -50 Level Chicago Center
Thu 12:45:06 AM 42.1047 -85.8147 265° West 177 204 6,000  Descending Chicago Center
Thu 12:46:06 AM 42.0997 -85.8817 264° West 179 206 6,100 50 Climbing Chicago Center
Thu 12:47:07 AM 42.0950 -85.9483 265° West 179 206 6,100 -50 Level Chicago Center
Thu 12:48:07 AM 42.0892 -86.0156 263° West 180 207 6,000  Descending Chicago Center
Thu 12:49:08 AM 42.0853 -86.0828 266° West 181 208 6,100 50 Climbing Chicago Center
Thu 12:50:08 AM 42.0808 -86.1500 265° West 181 208 6,100  Level Chicago Center
Thu 12:51:09 AM 42.0747 -86.2164 263° West 180 207 6,100 -50 Level Chicago Center
Thu 12:52:09 AM 42.0694 -86.2842 264° West 183 211 6,000 -50 Descending Chicago Center
Thu 12:53:09 AM 42.0658 -86.3525 266° West 183 211 6,000  Level Chicago Center
Thu 12:54:10 AM 42.0600 -86.4189 263° West 181 208 6,000  Level Chicago Center
Thu 12:55:10 AM 42.0553 -86.4864 265° West 181 208 6,000 50 Level Chicago Center
Thu 12:56:11 AM 42.0494 -86.5558 264° West 185 213 6,100  Climbing Chicago Center
Thu 12:57:11 AM 42.0439 -86.6236 264° West 184 212 6,000 -50 Descending Chicago Center
Thu 12:58:12 AM 42.0394 -86.6908 265° West 183 211 6,000  Level Chicago Center
Thu 12:59:12 AM 42.0333 -86.7661 264° West 179 206 6,000 50 Level Chicago Center
Thu 01:00:12 AM 42.0289 -86.8333 265° West 181 208 6,100 50 Climbing Chicago Center
Thu 01:01:13 AM 42.0231 -86.9006 263° West 181 208 6,100 -50 Level Chicago Center
Thu 01:02:13 AM 42.0175 -86.9675 264° West 181 208 6,000  Descending Chicago Center
Thu 01:03:13 AM 42.0131 -87.0333 265° West 179 206 6,100  Climbing Chicago Center
Thu 01:04:14 AM 42.0069 -87.1014 263° West 183 211 6,000 -50 Descending Chicago Center
Thu 01:05:14 AM 42.0011 -87.1672 263° West 180 207 6,000  Level Chicago Center
Thu 01:06:14 AM 41.9956 -87.2339 264° West 181 208 6,000 -50 Level Chicago Center
Thu 01:07:15 AM 41.9906 -87.3017 264° West 182 209 5,900 -50 Descending Chicago Center
Thu 01:08:15 AM 41.9844 -87.3672 263° West 180 207 5,900  Level Chicago Center
Thu 01:09:15 AM 41.9786 -87.4336 263° West 180 207 5,900 50 Level Chicago Center
Thu 01:10:16 AM 41.9731 -87.5000 264° West 179 206 6,000 50 Climbing Chicago Center
Thu 01:11:16 AM 41.9658 -87.5811 263° West 183 211 6,000 -50 Level Chicago Center
Thu 01:12:16 AM 41.9594 -87.6478 263° West 182 209 5,900 -50 Descending Chicago Center
Thu 01:13:16 AM 41.9550 -87.7158 265° West 184 212 5,900 -298 Level Chicago Center
Thu 01:14:17 AM 41.9481 -87.7839 262° West 184 212 5,300 -694 Descending Chicago Center
Thu 01:15:17 AM 41.9408 -87.8569 262° West 192 221 4,500 -800 Descending Chicago Center
Thu 01:16:17 AM 41.9361 -87.9283 265° West 195 224 3,700 -694 Descending Chicago Center
Thu 01:17:18 AM 41.9317 -87.9969 265° West 192 221 3,100 -545 Descending Chicago Center
Thu 01:18:18 AM 41.9328 -88.0608 271° West 184 212 2,600 -450 Descending Chicago Center
Thu 01:19:18 AM 41.9347 -88.1233 272° West 176 203 2,200 -347 Descending Chicago Center
Thu 01:20:19 AM 41.9353 -88.1806 271° West 166 191 1,900 -446 Descending Chicago Center
Thu 01:21:19 AM 41.9344 -88.2306 269° West 154 177 1,300 -450 Descending Chicago Center
Thu 01:22:19 AM 41.9022 -88.2514 206° Southwest 140 161 1,000 -300 Descending Chicago Center

Login

Don't have an account? Register now (free) for customized features, flight alerts, and more!